createdAt,value
2023-05-19T00:01:23.008Z,4.07
2023-05-19T00:04:24.787Z,4.75
2023-05-19T00:07:31.002Z,2.63
2023-05-19T00:10:33.118Z,3.40
2023-05-19T00:13:35.255Z,3.22
2023-05-19T00:16:42.152Z,3.40
2023-05-19T00:19:45.023Z,3.25
2023-05-19T00:22:46.692Z,2.67
2023-05-19T00:25:48.215Z,4.28
2023-05-19T00:28:50.304Z,2.90
2023-05-19T00:31:51.910Z,2.67
2023-05-19T00:34:53.571Z,3.08
2023-05-19T00:37:55.485Z,2.90
2023-05-19T00:40:57.298Z,2.97
2023-05-19T00:43:58.806Z,2.70
2023-05-19T00:47:00.574Z,2.90
2023-05-19T00:50:02.282Z,3.47
2023-05-19T00:53:04.139Z,3.88
2023-05-19T00:56:05.984Z,3.10
2023-05-19T00:59:08.602Z,2.95
2023-05-19T01:02:10.333Z,3.35
2023-05-19T01:05:13.329Z,3.20
2023-05-19T01:08:14.892Z,3.00
2023-05-19T01:11:16.439Z,3.13
2023-05-19T01:14:19.601Z,2.63
2023-05-19T01:17:30.491Z,3.55
2023-05-19T01:20:38.541Z,3.40
2023-05-19T01:24:18.197Z,2.35
2023-05-19T01:27:57.044Z,2.67
2023-05-19T01:31:00.728Z,2.88
2023-05-19T01:34:04.714Z,3.58
2023-05-19T01:37:07.811Z,2.75
2023-05-19T01:40:10.053Z,3.25
2023-05-19T01:43:15.016Z,3.00
2023-05-19T01:46:17.539Z,3.53
2023-05-19T01:49:19.164Z,2.65
2023-05-19T01:52:20.771Z,2.55
2023-05-19T01:55:24.027Z,3.33
2023-05-19T01:58:31.592Z,2.03
2023-05-19T02:01:53.695Z,3.10
2023-05-19T02:05:00.307Z,3.25
2023-05-19T02:08:35.570Z,1.98
2023-05-19T02:11:42.021Z,2.97
2023-05-19T02:15:18.050Z,4.28
2023-05-19T02:18:20.406Z,2.03
2023-05-19T02:21:25.773Z,2.30
2023-05-19T02:24:27.337Z,3.03
2023-05-19T02:27:29.857Z,3.75
2023-05-19T02:30:32.005Z,2.63
2023-05-19T02:33:36.194Z,2.90
2023-05-19T02:36:40.945Z,2.25
2023-05-19T02:39:44.249Z,3.05
2023-05-19T02:42:46.092Z,2.35
2023-05-19T02:45:47.664Z,2.90
2023-05-19T02:48:49.538Z,1.85
2023-05-19T02:51:51.081Z,3.22
2023-05-19T02:54:52.622Z,3.00
2023-05-19T02:57:54.205Z,2.83
2023-05-19T03:00:56.106Z,3.03
2023-05-19T03:03:57.911Z,2.65
2023-05-19T03:06:59.522Z,3.20
2023-05-19T03:10:03.822Z,2.47
2023-05-19T03:13:05.603Z,3.30
2023-05-19T03:16:08.097Z,2.45
2023-05-19T03:19:10.001Z,2.90
2023-05-19T03:22:11.824Z,2.60
2023-05-19T03:25:13.773Z,2.28
2023-05-19T03:28:15.941Z,1.77
2023-05-19T03:31:17.605Z,1.75
2023-05-19T03:34:19.220Z,1.95
2023-05-19T03:37:20.941Z,2.63
2023-05-19T03:40:22.506Z,2.63
2023-05-19T03:43:26.337Z,2.47
2023-05-19T03:46:32.414Z,2.70
2023-05-19T03:49:33.981Z,2.70
2023-05-19T03:52:46.587Z,2.72
2023-05-19T03:55:59.362Z,2.45
2023-05-19T03:59:00.938Z,2.90
2023-05-19T04:02:03.800Z,3.08
2023-05-19T04:05:05.715Z,2.88
2023-05-19T04:08:07.312Z,2.15
2023-05-19T04:11:09.023Z,2.53
2023-05-19T04:14:10.751Z,3.08
2023-05-19T04:17:12.522Z,2.38
2023-05-19T04:20:14.104Z,2.58
2023-05-19T04:23:15.667Z,2.38
2023-05-19T04:26:18.034Z,2.15
2023-05-19T04:29:19.627Z,2.75
2023-05-19T04:32:22.570Z,3.10
2023-05-19T04:35:25.369Z,2.97
2023-05-19T04:38:29.881Z,2.22
2023-05-19T04:41:31.527Z,2.35
2023-05-19T04:44:33.671Z,2.17
2023-05-19T04:47:38.413Z,2.75
2023-05-19T04:50:42.130Z,2.25
2023-05-19T04:53:43.882Z,1.77
2023-05-19T04:56:47.205Z,2.05
2023-05-19T04:59:49.671Z,2.10
2023-05-19T05:02:51.340Z,2.45
2023-05-19T05:05:56.663Z,2.30
2023-05-19T05:08:59.844Z,1.77
2023-05-19T05:12:02.446Z,2.97
2023-05-19T05:15:06.903Z,2.75
2023-05-19T05:18:08.908Z,2.63
2023-05-19T05:21:10.933Z,2.22
2023-05-19T05:24:13.080Z,2.20
2023-05-19T05:30:20.636Z,2.65
2023-05-19T05:33:24.647Z,2.08
2023-05-19T05:36:26.446Z,1.88
2023-05-19T05:39:28.699Z,2.38
2023-05-19T05:42:30.775Z,3.40
2023-05-19T05:45:32.594Z,2.22
2023-05-19T05:48:36.341Z,2.88
2023-05-19T05:51:40.656Z,2.30
2023-05-19T05:54:43.826Z,2.03
2023-05-19T05:57:48.669Z,2.60
2023-05-19T06:00:51.373Z,2.33
2023-05-19T06:03:52.992Z,2.22
2023-05-19T06:07:01.067Z,1.38
2023-05-19T06:10:07.285Z,2.42
2023-05-19T06:13:09.319Z,2.35
2023-05-19T06:16:12.843Z,1.60
2023-05-19T06:19:20.051Z,2.80
2023-05-19T06:22:21.713Z,2.45
2023-05-19T06:25:24.650Z,2.72
2023-05-19T06:28:26.512Z,2.30
2023-05-19T06:31:28.883Z,2.58
2023-05-19T06:34:33.418Z,2.47
2023-05-19T06:37:34.928Z,2.38
2023-05-19T06:40:37.695Z,3.33
2023-05-19T06:43:39.226Z,2.53
2023-05-19T06:46:40.906Z,2.13
2023-05-19T06:49:43.401Z,1.73
2023-05-19T06:52:46.919Z,1.92
2023-05-19T06:55:59.557Z,2.80
2023-05-19T06:59:04.034Z,2.90
2023-05-19T07:02:10.019Z,2.55
2023-05-19T07:05:11.797Z,3.25
2023-05-19T07:08:13.462Z,3.22
2023-05-19T07:11:15.433Z,2.95
2023-05-19T07:14:17.972Z,2.53
2023-05-19T07:17:19.746Z,2.45
2023-05-19T07:20:21.289Z,3.47
2023-05-19T07:23:23.093Z,2.60
2023-05-19T07:26:24.704Z,3.13
2023-05-19T07:29:26.398Z,3.08
2023-05-19T07:32:28.027Z,2.08
2023-05-19T07:35:29.620Z,2.88
2023-05-19T07:38:34.349Z,1.95
2023-05-19T07:41:36.541Z,3.00
2023-05-19T07:44:38.122Z,3.80
2023-05-19T07:47:39.633Z,2.97
2023-05-19T07:50:41.330Z,2.25
2023-05-19T07:53:42.869Z,2.40
2023-05-19T07:56:44.428Z,2.03
2023-05-19T07:59:46.021Z,2.63
2023-05-19T08:02:47.639Z,2.90
2023-05-19T08:05:49.198Z,4.25
2023-05-19T08:08:51.393Z,2.10
2023-05-19T08:11:52.927Z,4.50
2023-05-19T08:14:54.550Z,2.03
2023-05-19T08:17:56.119Z,3.15
2023-05-19T08:20:57.770Z,2.78
2023-05-19T08:23:59.278Z,2.42
2023-05-19T08:27:00.876Z,2.58
2023-05-19T08:30:02.524Z,3.08
2023-05-19T08:33:04.286Z,2.30
2023-05-19T08:36:06.594Z,5.50
2023-05-19T08:39:08.179Z,3.15
2023-05-19T08:42:10.022Z,3.70
2023-05-19T08:45:12.589Z,4.20
2023-05-19T08:48:16.745Z,4.35
2023-05-19T08:51:25.195Z,3.97
2023-05-19T08:54:33.693Z,4.30
2023-05-19T08:57:36.849Z,5.70
2023-05-19T09:00:38.621Z,3.55
2023-05-19T09:03:41.416Z,3.80
2023-05-19T09:06:45.092Z,5.10
2023-05-19T09:09:47.718Z,3.45
2023-05-19T09:12:49.752Z,4.32
2023-05-19T09:15:53.165Z,4.55
2023-05-19T09:18:56.764Z,4.75
2023-05-19T09:22:04.778Z,6.10
2023-05-19T09:25:06.731Z,3.78
2023-05-19T09:28:09.797Z,3.40
2023-05-19T09:31:11.641Z,4.45
2023-05-19T09:34:13.470Z,6.78
2023-05-19T09:37:14.984Z,4.38
2023-05-19T09:40:16.493Z,6.30
2023-05-19T09:43:18.163Z,3.70
2023-05-19T09:46:28.362Z,3.63
2023-05-19T09:49:30.788Z,6.18
2023-05-19T09:52:35.788Z,3.70
2023-05-19T09:55:37.439Z,4.35
2023-05-19T09:58:42.503Z,4.28
2023-05-19T10:01:46.547Z,4.47
2023-05-19T10:04:48.585Z,5.40
2023-05-19T10:07:54.582Z,5.68
2023-05-19T10:10:56.889Z,4.88
2023-05-19T10:13:59.136Z,5.28
2023-05-19T10:17:00.925Z,6.18
2023-05-19T10:20:03.718Z,5.43
2023-05-19T10:23:05.412Z,4.00
2023-05-19T10:26:08.463Z,4.15
2023-05-19T10:29:11.263Z,5.65
2023-05-19T10:32:20.954Z,7.10
2023-05-19T10:35:35.011Z,5.88
2023-05-19T10:39:01.028Z,5.60
2023-05-19T10:42:41.002Z,5.20
2023-05-19T10:45:51.641Z,4.57
2023-05-19T10:48:54.073Z,4.35
2023-05-19T10:51:58.538Z,3.40
2023-05-19T10:55:00.933Z,5.13
2023-05-19T10:58:02.868Z,5.35
2023-05-19T11:01:08.639Z,4.35
2023-05-19T11:04:12.291Z,3.50
2023-05-19T11:07:21.688Z,3.38
2023-05-19T11:10:24.589Z,3.65
2023-05-19T11:16:32.140Z,3.10
2023-05-19T11:19:37.142Z,3.80
2023-05-19T11:22:39.929Z,5.20
2023-05-19T11:25:46.784Z,2.58
2023-05-19T11:28:49.052Z,4.93
2023-05-19T11:31:51.884Z,6.70
2023-05-19T11:34:55.681Z,3.33
2023-05-19T11:37:57.589Z,4.50
2023-05-19T11:41:00.683Z,5.38
2023-05-19T11:44:02.228Z,4.22
2023-05-19T11:47:04.943Z,3.92
2023-05-19T11:50:07.090Z,2.80
2023-05-19T11:53:12.358Z,3.20
2023-05-19T11:56:15.144Z,3.60
2023-05-19T11:59:16.680Z,3.88
2023-05-19T12:02:25.876Z,3.85
2023-05-19T12:05:28.840Z,8.75
2023-05-19T12:08:30.467Z,4.55
2023-05-19T12:11:32.054Z,5.47
2023-05-19T12:14:34.453Z,6.47
2023-05-19T12:17:36.443Z,4.22
2023-05-19T12:20:38.163Z,2.95
2023-05-19T12:23:41.483Z,3.92
2023-05-19T12:26:43.191Z,3.88
2023-05-19T12:29:51.679Z,5.28
2023-05-19T12:32:54.180Z,3.65
2023-05-19T12:35:56.286Z,4.55
2023-05-19T12:38:58.058Z,4.47
2023-05-19T12:42:10.656Z,3.85
2023-05-19T12:45:12.396Z,8.30
2023-05-19T12:48:18.084Z,5.35
2023-05-19T12:51:20.390Z,8.35
2023-05-19T12:54:22.282Z,5.00
2023-05-19T12:57:26.107Z,6.95
2023-05-19T13:00:30.948Z,4.03
2023-05-19T13:03:32.923Z,5.30
2023-05-19T13:06:34.543Z,4.60
2023-05-19T13:09:36.463Z,6.38
2023-05-19T13:12:37.994Z,4.28
2023-05-19T13:15:42.017Z,3.80
2023-05-19T13:18:43.910Z,6.20
2023-05-19T13:21:47.477Z,4.03
2023-05-19T13:24:49.036Z,5.95
2023-05-19T13:27:51.012Z,4.15
2023-05-19T13:30:52.749Z,4.88
2023-05-19T13:33:54.454Z,4.93
2023-05-19T13:36:56.641Z,3.28
2023-05-19T13:40:00.989Z,5.55
2023-05-19T13:43:03.767Z,4.75
2023-05-19T13:46:06.050Z,3.50
2023-05-19T13:49:07.652Z,4.95
2023-05-19T13:52:09.184Z,4.38
2023-05-19T13:55:10.898Z,3.30
2023-05-19T13:58:14.291Z,4.00
2023-05-19T14:01:15.878Z,4.93
2023-05-19T14:04:18.454Z,4.82
2023-05-19T14:07:20.105Z,6.40
2023-05-19T14:10:21.732Z,6.85
2023-05-19T14:16:28.651Z,4.88
2023-05-19T14:19:30.547Z,4.60
2023-05-19T14:22:32.267Z,6.30
2023-05-19T14:25:33.841Z,4.00
2023-05-19T14:28:35.389Z,5.43
2023-05-19T14:31:37.010Z,4.93
2023-05-19T14:34:38.567Z,3.95
2023-05-19T14:37:40.098Z,6.28
2023-05-19T14:40:41.753Z,3.30
2023-05-19T14:43:43.317Z,4.25
2023-05-19T14:46:44.964Z,4.95
2023-05-19T14:49:46.767Z,5.80
2023-05-19T14:52:48.294Z,5.60
2023-05-19T14:55:49.929Z,3.58
2023-05-19T14:58:51.615Z,4.72
2023-05-19T15:01:53.236Z,6.22
2023-05-19T15:04:54.757Z,4.20
2023-05-19T15:07:56.448Z,4.60
2023-05-19T15:10:58.033Z,4.65
2023-05-19T15:13:59.734Z,5.93
2023-05-19T15:17:01.413Z,4.40
2023-05-19T15:20:03.132Z,5.35
2023-05-19T15:23:04.700Z,4.55
2023-05-19T15:26:06.792Z,3.90
2023-05-19T15:29:08.309Z,3.72
2023-05-19T15:32:09.938Z,3.75
2023-05-19T15:35:11.514Z,5.93
2023-05-19T15:38:13.082Z,2.78
2023-05-19T15:41:14.602Z,5.63
2023-05-19T15:44:16.190Z,3.47
2023-05-19T15:47:17.732Z,5.20
2023-05-19T15:50:19.330Z,5.28
2023-05-19T15:53:20.837Z,2.90
2023-05-19T15:56:22.490Z,3.95
2023-05-19T15:59:24.131Z,6.80
2023-05-19T16:02:25.706Z,3.42
2023-05-19T16:05:27.397Z,4.82
2023-05-19T16:08:29.012Z,3.40
2023-05-19T16:11:30.623Z,3.72
2023-05-19T16:14:36.265Z,2.90
2023-05-19T16:17:37.867Z,2.90
2023-05-19T16:20:39.394Z,2.95
2023-05-19T16:23:40.895Z,3.22
2023-05-19T16:26:42.404Z,3.75
2023-05-19T16:29:43.984Z,3.80
2023-05-19T16:32:45.666Z,2.92
2023-05-19T16:35:47.285Z,4.15
2023-05-19T16:38:48.863Z,2.75
2023-05-19T16:41:50.530Z,3.72
2023-05-19T16:44:52.136Z,3.88
2023-05-19T16:47:53.769Z,4.60
2023-05-19T16:50:55.457Z,3.55
2023-05-19T16:53:56.996Z,3.97
2023-05-19T16:56:58.543Z,4.45
2023-05-19T17:00:00.069Z,2.88
2023-05-19T17:03:01.733Z,3.20
2023-05-19T17:06:03.538Z,3.75
2023-05-19T17:09:05.098Z,2.75
2023-05-19T17:12:06.983Z,2.50
2023-05-19T17:15:08.934Z,3.80
2023-05-19T17:18:12.427Z,3.30
2023-05-19T17:21:14.081Z,3.88
2023-05-19T17:24:15.612Z,2.75
2023-05-19T17:27:17.131Z,2.58
2023-05-19T17:30:18.771Z,3.28
2023-05-19T17:33:20.874Z,2.25
2023-05-19T17:36:22.618Z,3.15
2023-05-19T17:39:24.825Z,2.85
2023-05-19T17:42:26.495Z,4.50
2023-05-19T17:45:31.162Z,2.85
2023-05-19T17:48:33.144Z,3.00
2023-05-19T17:51:34.911Z,2.67
2023-05-19T17:54:36.770Z,2.83
2023-05-19T17:57:42.611Z,2.25
2023-05-19T18:00:44.424Z,2.97
2023-05-19T18:03:49.494Z,3.97
2023-05-19T18:06:52.010Z,2.22
2023-05-19T18:09:55.828Z,6.38
2023-05-19T18:12:57.316Z,2.92
2023-05-19T18:15:59.711Z,4.25
2023-05-19T18:19:01.615Z,2.60
2023-05-19T18:22:03.518Z,3.35
2023-05-19T18:25:05.721Z,2.45
2023-05-19T18:28:07.674Z,2.80
2023-05-19T18:31:10.960Z,4.18
2023-05-19T18:34:13.864Z,4.43
2023-05-19T18:37:15.505Z,5.07
2023-05-19T18:40:17.126Z,6.70
2023-05-19T18:43:19.102Z,3.03
2023-05-19T18:46:20.939Z,2.13
2023-05-19T18:49:24.693Z,3.22
2023-05-19T18:52:28.233Z,3.95
2023-05-19T18:55:29.966Z,3.05
2023-05-19T18:58:31.861Z,2.17
2023-05-19T19:01:33.455Z,5.78
2023-05-19T19:04:35.081Z,3.47
2023-05-19T19:07:41.134Z,3.08
2023-05-19T19:10:45.098Z,3.97
2023-05-19T19:13:46.949Z,5.90
2023-05-19T19:16:48.695Z,4.35
2023-05-19T19:19:50.369Z,3.83
2023-05-19T19:22:52.088Z,5.32
2023-05-19T19:25:53.694Z,2.17
2023-05-19T19:28:56.105Z,6.25
2023-05-19T19:31:57.806Z,5.43
2023-05-19T19:34:59.437Z,4.03
2023-05-19T19:38:01.231Z,6.38
2023-05-19T19:41:02.952Z,9.18
2023-05-19T19:44:04.691Z,6.53
2023-05-19T19:47:06.441Z,8.52
2023-05-19T19:50:08.590Z,8.65
2023-05-19T19:53:10.278Z,10.00
2023-05-19T19:56:11.830Z,7.30
2023-05-19T19:59:13.398Z,8.35
2023-05-19T20:02:15.033Z,12.40
2023-05-19T20:05:16.766Z,10.63
2023-05-19T20:08:19.994Z,10.13
2023-05-19T20:11:23.650Z,10.48
2023-05-19T20:14:25.315Z,10.90
2023-05-19T20:17:26.914Z,9.85
2023-05-19T20:20:28.479Z,10.40
2023-05-19T20:23:29.991Z,10.38
2023-05-19T20:26:31.849Z,10.05
2023-05-19T20:29:33.460Z,7.18
2023-05-19T20:32:35.158Z,8.45
2023-05-19T20:35:36.725Z,6.95
2023-05-19T20:38:38.254Z,8.90
2023-05-19T20:41:39.802Z,9.38
2023-05-19T20:44:41.603Z,6.32
2023-05-19T20:47:43.192Z,9.55
2023-05-19T20:50:44.848Z,8.75
2023-05-19T20:53:46.329Z,9.07
2023-05-19T20:56:47.873Z,8.40
2023-05-19T20:59:49.400Z,8.32
2023-05-19T21:02:50.988Z,6.53
2023-05-19T21:05:53.371Z,8.98
2023-05-19T21:08:54.854Z,7.63
2023-05-19T21:11:56.384Z,8.85
2023-05-19T21:14:57.951Z,8.75
2023-05-19T21:17:59.534Z,6.45
2023-05-19T21:21:04.313Z,6.40
2023-05-19T21:24:06.149Z,7.90
2023-05-19T21:27:07.631Z,4.85
2023-05-19T21:30:09.651Z,6.55
2023-05-19T21:33:11.471Z,8.07
2023-05-19T21:36:13.103Z,7.65
2023-05-19T21:39:14.652Z,7.40
2023-05-19T21:42:16.166Z,7.22
2023-05-19T21:45:17.732Z,7.18
2023-05-19T21:48:19.616Z,8.90
2023-05-19T21:51:21.341Z,7.60
2023-05-19T21:54:22.840Z,5.97
2023-05-19T21:57:24.327Z,7.50
2023-05-19T22:00:25.884Z,5.45
2023-05-19T22:03:27.680Z,6.43
2023-05-19T22:06:29.714Z,6.30
2023-05-19T22:09:31.300Z,6.88
2023-05-19T22:12:33.066Z,5.45
2023-05-19T22:15:34.766Z,5.30
2023-05-19T22:18:36.308Z,6.22
2023-05-19T22:21:37.803Z,5.47
2023-05-19T22:24:39.343Z,5.45
2023-05-19T22:27:40.843Z,5.43
2023-05-19T22:30:42.703Z,5.15
2023-05-19T22:33:45.468Z,5.03
2023-05-19T22:36:46.999Z,6.78
2023-05-19T22:39:48.490Z,6.00
2023-05-19T22:42:50.014Z,6.15
2023-05-19T22:45:51.533Z,4.00
2023-05-19T22:48:53.099Z,4.80
2023-05-19T22:51:54.597Z,4.80
2023-05-19T22:54:56.081Z,5.60
2023-05-19T22:57:57.670Z,5.15
2023-05-19T23:00:59.178Z,4.75
2023-05-19T23:04:00.830Z,4.93
2023-05-19T23:07:02.439Z,3.97
2023-05-19T23:10:05.955Z,6.32
2023-05-19T23:13:09.414Z,4.50
2023-05-19T23:16:10.892Z,4.70
2023-05-19T23:19:12.576Z,5.90
2023-05-19T23:22:14.087Z,4.28
2023-05-19T23:25:15.738Z,3.92
2023-05-19T23:28:17.292Z,4.18
2023-05-19T23:31:18.831Z,4.20
2023-05-19T23:34:20.519Z,3.17
2023-05-19T23:37:22.017Z,4.97
2023-05-19T23:40:23.572Z,3.80
2023-05-19T23:43:25.041Z,5.03
2023-05-19T23:46:26.695Z,3.63
2023-05-19T23:49:28.250Z,2.95
2023-05-19T23:52:29.914Z,4.28
2023-05-19T23:55:31.518Z,4.35
2023-05-19T23:58:33.121Z,4.60
